Time;durP1;ratioP1;P1;durP2;ratioP2;P2;SDS_P1;SDS_P2;PMS_P1;PMS_P2;Temp;Humidity;BMP_temperature;BMP_pressure;BME280_temperature;BME280_humidity;BME280_pressure;Samples;Min_cycle;Max_cycle;Signal;HPM_P1;HPM_P2
2023/09/03 00:01:27;;;;;;;43.43;5.10;;;16.70;16.00;;;;;;5032459;28;20483;-79
2023/09/03 00:03:57;;;;;;;44.30;5.43;;;16.90;17.70;;;;;;5033651;28;20492;-79
2023/09/03 00:06:22;;;;;;;43.23;5.47;;;16.80;18.20;;;;;;5031490;28;20194;-79
2023/09/03 00:09:26;;;;;;;44.97;6.00;;;16.80;18.80;;;;;;5028916;28;20408;-79
2023/09/03 00:12:44;;;;;;;51.20;4.93;;;16.80;18.60;;;;;;5021879;28;20209;-79
2023/09/03 00:15:26;;;;;;;41.97;5.40;;;16.80;20.60;;;;;;5023773;28;20453;-79
2023/09/03 00:17:57;;;;;;;50.47;6.10;;;16.80;19.40;;;;;;5031792;28;20406;-79
2023/09/03 00:20:26;;;;;;;54.70;6.10;;;16.70;19.90;;;;;;5014760;28;20971;-79
2023/09/03 00:22:52;;;;;;;44.63;6.07;;;16.70;21.10;;;;;;5031702;28;20437;-77
2023/09/03 00:25:50;;;;;;;50.70;6.40;;;16.70;23.10;;;;;;5023403;28;20467;-77
2023/09/03 00:28:44;;;;;;;54.03;6.70;;;16.80;24.10;;;;;;5035214;28;20603;-78
2023/09/03 00:31:38;;;;;;;47.77;5.97;;;16.80;25.50;;;;;;5026426;28;20438;-77
2023/09/03 00:34:09;;;;;;;50.57;6.97;;;;;;;;;;5022180;28;20954;-77
2023/09/03 00:36:45;;;;;;;50.00;6.30;;;16.80;24.40;;;;;;5026706;28;20413;-78
2023/09/03 00:39:10;;;;;;;49.93;6.60;;;16.80;26.90;;;;;;5032092;28;20499;-78
2023/09/03 00:41:38;;;;;;;53.47;6.10;;;16.70;27.20;;;;;;5034259;28;20456;-78
2023/09/03 00:44:08;;;;;;;43.70;6.20;;;16.70;26.80;;;;;;5032423;28;20581;-78
2023/09/03 00:46:34;;;;;;;57.93;5.93;;;16.70;26.00;;;;;;5020698;28;20401;-78
2023/09/03 00:49:02;;;;;;;62.40;6.30;;;16.70;24.80;;;;;;5031375;28;20522;-78
2023/09/03 00:51:28;;;;;;;63.80;6.13;;;16.60;23.30;;;;;;5020766;28;20215;-78
2023/09/03 00:53:57;;;;;;;48.10;5.70;;;16.60;23.10;;;;;;5026312;28;20497;-79
2023/09/03 00:56:45;;;;;;;44.93;5.27;;;16.50;22.40;;;;;;5027758;28;20645;-79
2023/09/03 00:59:15;;;;;;;53.67;5.70;;;16.50;21.10;;;;;;5031370;28;20899;-79
2023/09/03 01:02:26;;;;;;;45.60;5.50;;;16.50;19.80;;;;;;5020413;28;20890;-79
2023/09/03 01:05:26;;;;;;;53.93;5.40;;;16.50;19.40;;;;;;5023291;28;20409;-79
2023/09/03 01:07:58;;;;;;;48.73;5.50;;;16.50;19.10;;;;;;5028227;28;20432;-79
2023/09/03 01:10:53;;;;;;;44.87;5.07;;;16.40;18.20;;;;;;5024921;28;20482;-79
2023/09/03 01:13:44;;;;;;;41.87;5.33;;;16.40;18.90;;;;;;5026202;28;20436;-79
2023/09/03 01:16:19;;;;;;;46.13;5.73;;;16.40;18.30;;;;;;5025948;28;20395;-79
2023/09/03 01:19:00;;;;;;;49.93;4.73;;;16.20;18.40;;;;;;5021975;28;20571;-79
2023/09/03 01:21:46;;;;;;;44.67;5.40;;;16.20;19.00;;;;;;5020561;28;20888;-79
2023/09/03 01:24:38;;;;;;;44.17;4.93;;;16.20;16.30;;;;;;5030583;28;20429;-79
2023/09/03 01:27:33;;;;;;;44.67;5.43;;;16.20;18.20;;;;;;5026717;28;20500;-79
2023/09/03 01:30:38;;;;;;;43.27;4.93;;;16.10;17.70;;;;;;5021273;28;20423;-79
2023/09/03 01:33:26;;;;;;;48.93;5.10;;;16.10;17.60;;;;;;5022772;28;20432;-79
2023/09/03 01:35:57;;;;;;;40.30;5.37;;;16.10;18.30;;;;;;5022678;28;20404;-79
2023/09/03 01:38:33;;;;;;;48.90;6.20;;;16.00;18.80;;;;;;5022881;28;20912;-78
2023/09/03 01:40:59;;;;;;;45.23;5.13;;;16.00;19.20;;;;;;5013643;28;20548;-77
2023/09/03 01:43:26;;;;;;;40.30;4.57;;;16.10;19.60;;;;;;5015376;28;20420;-79
2023/09/03 01:46:36;;;;;;;51.43;5.97;;;16.00;20.70;;;;;;5031756;28;20429;-78
2023/09/03 01:49:29;;;;;;;41.77;4.87;;;16.00;20.90;;;;;;5025738;28;20942;-78
2023/09/03 01:52:26;;;;;;;40.70;4.03;;;15.90;21.40;;;;;;5031027;28;20445;-77
2023/09/03 01:54:59;;;;;;;42.83;4.90;;;16.00;21.20;;;;;;5030739;28;20430;-77
2023/09/03 01:57:33;;;;;;;46.13;4.93;;;15.90;21.80;;;;;;5018358;28;20420;-77
2023/09/03 02:00:20;;;;;;;46.93;4.80;;;15.90;22.30;;;;;;5021755;28;20376;-78
2023/09/03 02:02:57;;;;;;;40.57;4.50;;;15.90;24.20;;;;;;5036714;28;20419;-78
2023/09/03 02:05:32;;;;;;;39.60;4.70;;;15.90;24.30;;;;;;5032391;28;20405;-77
2023/09/03 02:08:02;;;;;;;43.17;4.80;;;15.90;23.30;;;;;;5030821;28;20481;-78
2023/09/03 02:10:56;;;;;;;39.30;4.70;;;15.80;25.70;;;;;;5031739;28;20432;-77
2023/09/03 02:13:22;;;;;;;50.83;5.13;;;15.80;25.80;;;;;;5036789;28;20459;-77
2023/09/03 02:15:58;;;;;;;44.63;4.40;;;15.80;25.80;;;;;;5031628;28;20451;-78
2023/09/03 02:18:24;;;;;;;42.50;5.03;;;15.80;26.60;;;;;;5027077;28;20186;-78
2023/09/03 02:20:50;;;;;;;39.83;4.80;;;15.70;25.60;;;;;;5022330;28;20440;-77
2023/09/03 02:23:26;;;;;;;63.07;5.07;;;15.80;27.60;;;;;;5036870;28;20177;-79
2023/09/03 02:26:00;;;;;;;46.50;5.00;;;15.70;27.20;;;;;;5033791;28;20387;-79
2023/09/03 02:28:26;;;;;;;45.93;4.50;;;15.70;26.60;;;;;;5036898;28;20463;-80
2023/09/03 02:30:57;;;;;;;43.00;5.13;;;15.70;25.70;;;;;;5031618;28;20869;-80
2023/09/03 02:33:26;;;;;;;50.17;5.40;;;15.70;27.20;;;;;;5018664;28;20178;-79
2023/09/03 02:36:38;;;;;;;41.00;4.50;;;15.70;27.50;;;;;;5022124;28;20395;-79
2023/09/03 02:39:44;;;;;;;50.30;5.57;;;15.70;26.80;;;;;;5031514;28;20376;-78
2023/09/03 02:42:09;;;;;;;43.57;4.23;;;15.70;27.70;;;;;;5029756;28;20411;-78
2023/09/03 02:44:38;;;;;;;50.63;5.40;;;15.60;27.50;;;;;;5027608;28;20381;-78
2023/09/03 02:47:04;;;;;;;44.23;4.17;;;15.60;29.40;;;;;;5030663;28;20825;-78
2023/09/03 02:49:56;;;;;;;44.83;5.10;;;15.60;29.90;;;;;;5036808;28;20389;-78
2023/09/03 02:52:26;;;;;;;41.70;4.20;;;15.60;29.60;;;;;;5031599;28;20195;-77
2023/09/03 02:54:56;;;;;;;56.97;4.60;;;15.70;29.10;;;;;;5018809;28;20455;-78
2023/09/03 02:57:26;;;;;;;41.30;4.63;;;15.50;28.70;;;;;;5036188;28;20408;-77
2023/09/03 02:59:56;;;;;;;39.90;4.40;;;15.60;29.30;;;;;;5032518;28;20921;-78
2023/09/03 03:02:26;;;;;;;45.93;4.70;;;15.70;29.70;;;;;;5026253;28;20417;-78
2023/09/03 03:05:02;;;;;;;42.87;4.60;;;15.60;28.40;;;;;;5033237;28;20967;-78
2023/09/03 03:07:41;;;;;;;41.30;4.30;;;15.70;27.70;;;;;;5035493;28;20513;-78
2023/09/03 03:10:09;;;;;;;59.83;4.60;;;15.70;27.10;;;;;;5022099;28;20436;-79
2023/09/03 03:12:56;;;;;;;47.37;4.70;;;15.70;28.70;;;;;;5023707;28;20425;-79
2023/09/03 03:15:52;;;;;;;40.10;4.30;;;15.70;28.40;;;;;;5025278;28;20420;-79
2023/09/03 03:18:56;;;;;;;45.30;3.80;;;15.70;28.10;;;;;;5016193;28;20375;-79
2023/09/03 03:21:26;;;;;;;38.80;4.23;;;15.70;29.00;;;;;;5024021;28;20423;-79
2023/09/03 03:24:04;;;;;;;49.13;5.13;;;15.70;29.10;;;;;;5035088;28;20942;-78
2023/09/03 03:27:02;;;;;;;39.23;4.63;;;15.70;29.40;;;;;;5015952;28;20391;-78
2023/09/03 03:29:44;;;;;;;47.77;4.17;;;15.70;29.60;;;;;;5034689;28;20390;-78
2023/09/03 03:32:27;;;;;;;38.43;4.33;;;15.80;25.70;;;;;;5024544;28;20844;-78
2023/09/03 03:34:56;;;;;;;46.90;4.53;;;15.80;28.60;;;;;;5023667;28;20455;-77
2023/09/03 03:37:22;;;;;;;37.17;4.13;;;15.80;29.00;;;;;;5032428;28;20428;-77
2023/09/03 03:39:56;;;;;;;39.70;4.40;;;15.70;29.80;;;;;;5034571;28;20431;-78
2023/09/03 03:42:44;;;;;;;38.87;4.30;;;15.70;31.80;;;;;;5034772;28;20441;-78
2023/09/03 03:45:14;;;;;;;46.47;4.80;;;15.80;32.60;;;;;;5034054;28;20452;-78
2023/09/03 03:47:44;;;;;;;45.57;4.60;;;15.80;32.70;;;;;;5024851;28;20614;-78
2023/09/03 03:50:29;;;;;;;41.33;4.53;;;15.80;31.60;;;;;;5033800;28;20421;-78
2023/09/03 03:52:56;;;;;;;40.07;4.40;;;15.80;30.80;;;;;;5023304;28;20408;-78
2023/09/03 03:55:26;;;;;;;42.03;4.70;;;15.80;28.50;;;;;;5035270;28;20935;-78
2023/09/03 03:57:56;;;;;;;44.03;3.90;;;15.90;32.10;;;;;;5034725;28;20431;-81
2023/09/03 04:00:22;;;;;;;41.07;4.60;;;15.80;29.30;;;;;;5026477;28;20400;-79
2023/09/03 04:02:50;;;;;;;50.77;5.20;;;15.90;31.70;;;;;;5019581;28;20533;-79
2023/09/03 04:05:26;;;;;;;42.77;4.40;;;15.80;31.80;;;;;;5024011;28;20173;-79
2023/09/03 04:07:52;;;;;;;51.50;4.47;;;16.00;32.90;;;;;;5030628;28;20390;-79
2023/09/03 04:10:26;;;;;;;42.80;4.37;;;15.80;30.20;;;;;;5034854;28;20384;-79
2023/09/03 04:13:26;;;;;;;41.10;5.20;;;15.90;34.10;;;;;;5034743;28;20212;-79
2023/09/03 04:15:57;;;;;;;44.90;5.20;;;15.90;35.90;;;;;;5031535;28;20418;-79
2023/09/03 04:18:27;;;;;;;45.17;5.33;;;16.00;39.40;;;;;;5034466;28;20482;-79
2023/09/03 04:20:57;;;;;;;42.97;7.90;;;15.90;38.60;;;;;;5033203;28;20410;-79
2023/09/03 04:23:26;;;;;;;41.60;5.93;;;16.00;41.50;;;;;;5025224;28;20464;-79
2023/09/03 04:25:53;;;;;;;46.03;5.87;;;15.90;43.20;;;;;;5019073;28;20835;-79
2023/09/03 04:28:26;;;;;;;50.80;5.90;;;15.90;46.60;;;;;;5025486;28;20421;-79
2023/09/03 04:31:03;;;;;;;42.20;5.60;;;16.00;47.20;;;;;;5019911;28;20431;-79
2023/09/03 04:33:50;;;;;;;59.83;6.43;;;16.00;47.30;;;;;;5034346;28;20443;-79
2023/09/03 04:36:16;;;;;;;49.40;6.00;;;16.00;47.30;;;;;;5032406;28;20394;-79
2023/09/03 04:38:41;;;;;;;45.40;5.57;;;16.00;47.30;;;;;;5033636;28;20437;-79
2023/09/03 04:41:07;;;;;;;51.73;5.97;;;16.10;47.30;;;;;;5032239;28;20280;-79
2023/09/03 04:44:04;;;;;;;44.40;5.20;;;16.10;47.30;;;;;;5034153;28;20221;-79
2023/09/03 04:46:44;;;;;;;43.20;5.70;;;16.10;46.10;;;;;;5022826;28;20181;-79
2023/09/03 04:49:26;;;;;;;56.77;5.43;;;16.00;41.90;;;;;;5034308;28;20443;-79
2023/09/03 04:52:26;;;;;;;44.23;5.47;;;16.00;45.40;;;;;;5029629;28;20427;-79
2023/09/03 04:54:56;;;;;;;46.70;5.37;;;16.00;41.40;;;;;;5019825;28;20884;-79
2023/09/03 04:57:50;;;;;;;52.63;4.73;;;16.00;36.00;;;;;;5033447;28;20461;-79
2023/09/03 05:00:16;;;;;;;40.60;5.10;;;16.00;36.40;;;;;;5016231;28;20416;-79
2023/09/03 05:02:42;;;;;;;41.73;5.13;;;16.00;36.50;;;;;;5026991;28;20428;-78
2023/09/03 05:05:08;;;;;;;48.90;5.70;;;16.00;36.40;;;;;;5023083;28;20418;-79
2023/09/03 05:07:38;;;;;;;40.67;4.60;;;16.00;33.50;;;;;;5028614;28;20443;-79
2023/09/03 05:10:08;;;;;;;48.07;4.90;;;16.00;31.50;;;;;;5032763;28;20408;-79
2023/09/03 05:12:34;;;;;;;41.67;4.43;;;16.10;30.40;;;;;;5032224;28;20444;-79
2023/09/03 05:15:20;;;;;;;50.43;4.83;;;16.10;29.10;;;;;;5025291;28;20823;-79
2023/09/03 05:17:57;;;;;;;52.93;4.80;;;16.10;33.70;;;;;;5018206;28;20173;-79
2023/09/03 05:20:26;;;;;;;43.20;5.30;;;16.30;34.40;;;;;;5029767;28;20619;-79
2023/09/03 05:22:56;;;;;;;46.30;5.60;;;16.10;26.40;;;;;;5042272;28;20404;-79
2023/09/03 05:25:32;;;;;;;46.37;5.63;;;16.20;27.30;;;;;;5031849;28;20405;-79
2023/09/03 05:28:02;;;;;;;45.37;5.57;;;16.20;24.20;;;;;;5024784;28;20391;-79
2023/09/03 05:30:38;;;;;;;49.87;6.60;;;16.20;25.20;;;;;;5015864;28;20407;-79
2023/09/03 05:33:20;;;;;;;50.10;6.60;;;16.30;27.20;;;;;;5033335;28;20406;-79
2023/09/03 05:39:26;;;;;;;56.03;6.57;;;16.40;27.30;;;;;;5032299;28;20424;-79
2023/09/03 05:41:52;;;;;;;42.97;5.80;;;16.40;27.80;;;;;;5030476;28;20432;-79
2023/09/03 05:44:26;;;;;;;53.33;6.80;;;16.50;29.00;;;;;;5029972;28;20406;-79
2023/09/03 05:47:02;;;;;;;44.80;5.90;;;16.60;29.40;;;;;;5029790;28;20720;-79
2023/09/03 05:49:32;;;;;;;45.60;5.27;;;16.60;30.10;;;;;;5025699;28;20470;-80
2023/09/03 05:52:08;;;;;;;52.70;6.20;;;16.70;30.30;;;;;;5014557;28;20432;-79
2023/09/03 05:54:46;;;;;;;46.20;5.80;;;16.70;29.20;;;;;;5031021;28;20946;-79
2023/09/03 05:57:12;;;;;;;46.23;6.10;;;16.90;28.10;;;;;;5023372;28;20427;-79
2023/09/03 05:59:56;;;;;;;48.20;5.43;;;16.90;26.80;;;;;;5022945;28;20408;-79
2023/09/03 06:02:35;;;;;;;56.33;6.20;;;17.00;28.80;;;;;;5024718;28;20266;-79
2023/09/03 06:05:01;;;;;;;47.37;5.30;;;17.20;27.70;;;;;;5025868;28;20430;-79
2023/09/03 06:07:32;;;;;;;41.47;5.10;;;17.30;22.80;;;;;;5026287;28;20417;-80
2023/09/03 06:10:02;;;;;;;66.27;6.60;;;17.50;20.00;;;;;;5029524;28;20442;-79
2023/09/03 06:12:38;;;;;;;42.80;5.87;;;17.50;22.40;;;;;;5028896;28;20508;-79
2023/09/03 06:15:08;;;;;;;51.13;5.40;;;17.70;21.30;;;;;;5024747;28;20465;-79
2023/09/03 06:17:38;;;;;;;42.50;5.47;;;17.80;21.40;;;;;;5016523;28;20446;-79
2023/09/03 06:20:05;;;;;;;42.93;5.80;;;17.90;20.40;;;;;;5028285;28;20412;-79
2023/09/03 06:22:32;;;;;;;46.87;5.37;;;18.00;18.00;;;;;;5024701;28;20438;-79
2023/09/03 06:25:08;;;;;;;41.67;5.70;;;18.20;15.60;;;;;;5030528;28;20770;-79
2023/09/03 06:27:38;;;;;;;48.60;5.13;;;18.30;14.70;;;;;;5021124;28;20401;-79
2023/09/03 06:30:05;;;;;;;45.37;5.57;;;18.50;14.30;;;;;;5020383;28;20407;-79
2023/09/03 06:32:32;;;;;;;51.70;7.60;;;18.60;13.80;;;;;;5023595;28;20856;-79
2023/09/03 06:35:08;;;;;;;48.23;6.47;;;18.70;12.10;;;;;;5024279;28;20553;-80
2023/09/03 06:37:56;;;;;;;48.90;7.00;;;18.90;11.90;;;;;;5032819;28;20905;-80
2023/09/03 06:40:32;;;;;;;49.90;7.47;;;19.00;11.60;;;;;;5035805;28;20454;-79
2023/09/03 06:43:02;;;;;;;46.07;6.63;;;19.20;8.40;;;;;;5027172;28;20443;-79
2023/09/03 06:45:28;;;;;;;42.40;6.60;;;19.30;5.90;;;;;;5031452;28;20795;-80
2023/09/03 06:47:54;;;;;;;45.53;6.17;;;19.50;2.60;;;;;;5030765;28;20434;-80
2023/09/03 06:50:32;;;;;;;46.23;6.07;;;19.60;1.50;;;;;;5033367;28;20493;-80
2023/09/03 06:53:26;;;;;;;46.63;5.50;;;19.80;1.00;;;;;;5026204;28;20468;-79
2023/09/03 06:56:03;;;;;;;45.10;6.93;;;19.90;1.00;;;;;;5029415;28;20414;-80
2023/09/03 06:58:50;;;;;;;44.27;6.80;;;20.00;1.00;;;;;;5023876;28;20429;-79
2023/09/03 07:01:17;;;;;;;49.03;7.80;;;20.10;1.00;;;;;;5030833;28;20387;-80
2023/09/03 07:04:02;;;;;;;50.30;10.57;;;20.20;1.00;;;;;;5030691;28;20435;-81
2023/09/03 07:06:38;;;;;;;49.57;10.87;;;20.30;1.00;;;;;;5030295;28;21001;-80
2023/09/03 07:09:38;;;;;;;50.90;10.70;;;20.50;1.00;;;;;;5031035;28;20934;-80
2023/09/03 07:12:56;;;;;;;51.83;12.17;;;20.60;1.00;;;;;;5029359;28;20452;-79
2023/09/03 07:15:38;;;;;;;49.90;10.83;;;20.70;1.00;;;;;;5025751;28;20461;-80
2023/09/03 07:18:08;;;;;;;50.03;11.57;;;20.70;1.00;;;;;;5035371;28;20425;-81
2023/09/03 07:21:14;;;;;;;48.97;11.97;;;20.90;1.00;;;;;;5024354;28;20427;-79
2023/09/03 07:23:40;;;;;;;48.97;10.53;;;20.90;1.00;;;;;;5021263;28;20468;-81
2023/09/03 07:26:26;;;;;;;53.10;13.67;;;21.00;1.00;;;;;;5034156;28;20465;-79
2023/09/03 07:29:02;;;;;;;50.50;13.23;;;21.00;1.00;;;;;;5031622;28;20271;-81
2023/09/03 07:32:02;;;;;;;55.80;12.60;;;21.10;1.00;;;;;;5037783;28;20927;-82
2023/09/03 07:35:08;;;;;;;49.60;13.80;;;21.20;1.00;;;;;;5030647;28;20457;-82
2023/09/03 07:37:39;;;;;;;48.17;12.80;;;21.30;1.00;;;;;;5022889;28;20449;-82
2023/09/03 07:40:08;;;;;;;48.43;12.97;;;21.40;1.00;;;;;;5023971;28;20427;-82
2023/09/03 07:43:02;;;;;;;50.10;13.70;;;21.50;1.00;;;;;;5021004;28;20499;-80
2023/09/03 07:45:32;;;;;;;51.13;13.20;;;21.70;1.00;;;;;;5029632;28;20426;-80
2023/09/03 07:47:58;;;;;;;57.30;15.20;;;21.90;1.00;;;;;;5031305;28;20427;-80
2023/09/03 07:50:44;;;;;;;48.77;14.80;;;22.20;1.00;;;;;;5025453;28;20974;-80
2023/09/03 07:53:15;;;;;;;48.97;13.97;;;22.20;1.00;;;;;;5016514;28;20178;-80
2023/09/03 07:59:20;;;;;;;52.37;14.47;;;22.40;1.00;;;;;;5024675;28;20437;-82
2023/09/03 08:02:00;;;;;;;48.00;14.20;;;22.50;1.00;;;;;;5030648;28;20425;-81
2023/09/03 08:04:27;;;;;;;52.50;14.67;;;22.60;1.00;;;;;;5026565;28;20440;-82
2023/09/03 08:07:03;;;;;;;52.50;12.97;;;22.70;1.00;;;;;;5033819;28;20414;-82
2023/09/03 08:09:32;;;;;;;50.23;13.20;;;22.90;1.00;;;;;;5032577;28;20850;-81
2023/09/03 08:12:03;;;;;;;48.53;14.23;;;23.10;1.00;;;;;;5028744;28;20427;-82
2023/09/03 08:14:32;;;;;;;45.17;11.53;;;23.30;1.00;;;;;;5034445;28;20556;-79
2023/09/03 08:17:02;;;;;;;46.20;12.80;;;23.40;1.00;;;;;;5024393;28;20875;-80
2023/09/03 08:19:28;;;;;;;45.70;11.40;;;23.40;1.00;;;;;;5025493;28;20780;-80
2023/09/03 08:22:08;;;;;;;49.40;12.47;;;23.50;1.00;;;;;;5034479;28;20448;-80
2023/09/03 08:24:44;;;;;;;47.13;11.47;;;23.50;1.00;;;;;;5028467;28;20199;-80
2023/09/03 08:27:26;;;;;;;47.63;11.00;;;23.30;1.00;;;;;;5033110;28;20433;-79
2023/09/03 08:30:10;;;;;;;45.40;10.50;;;23.20;1.00;;;;;;5033559;28;20416;-80
2023/09/03 08:32:39;;;;;;;48.40;11.90;;;23.00;1.00;;;;;;5019234;28;20444;-80
2023/09/03 08:35:08;;;;;;;45.90;10.77;;;23.00;1.00;;;;;;5038002;28;20508;-81
2023/09/03 08:37:34;;;;;;;44.67;10.70;;;23.00;1.00;;;;;;5027889;28;20506;-81
2023/09/03 08:40:16;;;;;;;44.07;10.67;;;23.00;1.00;;;;;;5032872;28;20508;-81
2023/09/03 08:42:47;;;;;;;47.47;10.80;;;23.00;1.00;;;;;;5028274;28;20534;-81
2023/09/03 08:45:15;;;;;;;42.47;9.47;;;22.90;1.00;;;;;;5030452;28;20587;-80
2023/09/03 08:47:49;;;;;;;41.90;9.30;;;23.00;1.00;;;;;;5026695;28;20441;-81
2023/09/03 08:50:15;;;;;;;46.07;11.70;;;23.00;1.00;;;;;;5024028;28;20399;-81
2023/09/03 08:52:57;;;;;;;45.27;9.80;;;23.00;1.00;;;;;;5030115;28;20898;-80
2023/09/03 08:56:14;;;;;;;43.50;9.20;;;23.00;1.00;;;;;;5023468;28;20469;-80
2023/09/03 08:58:50;;;;;;;45.90;10.70;;;23.00;1.00;;;;;;5030343;28;20915;-79
2023/09/03 09:01:21;;;;;;;55.57;12.80;;;23.00;1.00;;;;;;5020395;28;20987;-79
2023/09/03 09:03:54;;;;;;;45.70;11.77;;;23.00;1.00;;;;;;5027519;28;20524;-79
2023/09/03 09:06:46;;;;;;;45.83;10.87;;;23.00;1.00;;;;;;5027568;28;20804;-79
2023/09/03 09:09:14;;;;;;;44.40;10.67;;;23.20;1.00;;;;;;5027291;28;20415;-79
2023/09/03 09:12:20;;;;;;;50.40;10.17;;;23.30;1.00;;;;;;5030921;28;20424;-80
2023/09/03 09:15:20;;;;;;;44.17;11.33;;;23.30;1.00;;;;;;5031576;28;20461;-81
2023/09/03 09:17:46;;;;;;;46.60;11.33;;;23.40;1.00;;;;;;5032437;28;20414;-78
2023/09/03 09:20:17;;;;;;;43.30;11.60;;;23.50;1.00;;;;;;5022663;28;20553;-77
2023/09/03 09:22:51;;;;;;;44.67;11.20;;;23.60;1.00;;;;;;5022621;28;20171;-87
2023/09/03 09:29:05;;;;;;;45.10;10.20;;;23.70;1.00;;;;;;5027036;28;20424;-79
2023/09/03 09:31:44;;;;;;;46.00;11.60;;;23.80;1.00;;;;;;5033542;28;20504;-78
2023/09/03 09:34:26;;;;;;;42.80;10.73;;;23.80;1.00;;;;;;5032004;28;21033;-78
2023/09/03 09:37:09;;;;;;;48.27;10.00;;;23.90;1.00;;;;;;5020447;28;20515;-78
2023/09/03 09:40:03;;;;;;;46.60;10.77;;;23.90;1.00;;;;;;5026314;28;20491;-78
2023/09/03 09:42:33;;;;;;;44.10;11.00;;;;;;;;;;5014122;28;20439;-80
2023/09/03 09:45:03;;;;;;;45.47;11.43;;;23.90;1.00;;;;;;5014457;28;20399;-80
2023/09/03 09:47:46;;;;;;;46.00;10.17;;;23.80;1.00;;;;;;5031700;28;20414;-80
2023/09/03 09:50:30;;;;;;;44.57;10.60;;;23.90;1.00;;;;;;5020597;28;20938;-80
2023/09/03 09:52:56;;;;;;;41.77;9.90;;;23.90;1.00;;;;;;5023444;28;20655;-80
2023/09/03 09:55:44;;;;;;;43.10;9.63;;;24.00;1.00;;;;;;5032451;28;20826;-80
2023/09/03 09:58:15;;;;;;;43.27;10.80;;;24.10;1.00;;;;;;5032926;28;20426;-80
2023/09/03 10:00:44;;;;;;;45.03;11.30;;;24.20;1.00;;;;;;5020821;28;20426;-80
2023/09/03 10:03:44;;;;;;;43.83;10.17;;;24.40;1.00;;;;;;5017654;28;20434;-81
2023/09/03 10:06:13;;;;;;;44.37;10.60;;;24.50;1.00;;;;;;5020136;28;20442;-81
2023/09/03 10:08:39;;;;;;;45.93;9.30;;;24.60;1.00;;;;;;5023007;28;20435;-81
2023/09/03 10:11:09;;;;;;;43.67;10.00;;;24.70;1.00;;;;;;5027574;28;20393;-81
2023/09/03 10:13:39;;;;;;;43.90;10.83;;;24.90;1.00;;;;;;5025960;28;21026;-81
2023/09/03 10:16:10;;;;;;;42.47;9.87;;;24.80;1.00;;;;;;5028956;28;20433;-81
2023/09/03 10:18:47;;;;;;;39.70;9.00;;;24.90;1.00;;;;;;5027948;28;20901;-81
2023/09/03 10:21:20;;;;;;;40.80;9.37;;;24.90;1.00;;;;;;5037111;28;20404;-81
2023/09/03 10:24:15;;;;;;;41.97;9.60;;;25.00;1.00;;;;;;5023051;28;20513;-81
2023/09/03 10:26:49;;;;;;;41.87;9.70;;;25.30;1.00;;;;;;5027427;28;20452;-81
2023/09/03 10:29:23;;;;;;;42.23;9.17;;;25.30;1.00;;;;;;5037158;28;20397;-81
2023/09/03 10:31:58;;;;;;;41.17;8.67;;;25.40;1.00;;;;;;5036843;28;20451;-81
2023/09/03 10:34:44;;;;;;;40.50;8.30;;;25.60;1.00;;;;;;5023480;28;20882;-81
2023/09/03 10:37:14;;;;;;;41.30;9.50;;;25.80;1.00;;;;;;5019535;28;20490;-81
2023/09/03 10:40:10;;;;;;;40.77;8.93;;;26.00;1.00;;;;;;5026013;28;20430;-81
2023/09/03 10:42:44;;;;;;;41.10;9.20;;;26.20;1.00;;;;;;5035223;28;20437;-79
2023/09/03 10:45:16;;;;;;;42.20;9.70;;;26.20;1.00;;;;;;5035042;28;20935;-79
2023/09/03 10:48:01;;;;;;;47.97;9.90;;;26.10;1.00;;;;;;5030020;28;20428;-82
2023/09/03 10:51:14;;;;;;;39.40;8.77;;;26.10;1.00;;;;;;5025160;28;20433;-80
2023/09/03 10:53:44;;;;;;;37.07;7.90;;;26.00;1.00;;;;;;5016593;28;20410;-82
2023/09/03 10:56:17;;;;;;;39.90;8.27;;;26.00;1.00;;;;;;5030060;28;20414;-80
2023/09/03 10:58:59;;;;;;;42.43;8.20;;;26.20;1.00;;;;;;5031312;28;20505;-76
2023/09/03 11:01:44;;;;;;;37.93;8.40;;;26.30;1.00;;;;;;5024180;28;20427;-74
2023/09/03 11:04:10;;;;;;;38.43;7.80;;;26.40;1.00;;;;;;5032544;28;20402;-78
2023/09/03 11:06:44;;;;;;;36.47;6.90;;;26.40;1.00;;;;;;5035167;28;20481;-76
2023/09/03 11:09:17;;;;;;;36.47;7.23;;;26.50;1.00;;;;;;5027201;28;20577;-77
2023/09/03 11:11:44;;;;;;;38.20;8.17;;;26.50;1.00;;;;;;5036103;28;20918;-78
2023/09/03 11:14:14;;;;;;;37.80;8.20;;;26.50;1.00;;;;;;5016776;28;20456;-81
2023/09/03 11:16:50;;;;;;;38.97;7.70;;;26.50;1.00;;;;;;5026449;28;20949;-81
2023/09/03 11:19:20;;;;;;;39.37;6.97;;;26.50;1.00;;;;;;5024717;28;20455;-80
2023/09/03 11:22:03;;;;;;;39.30;6.80;;;26.30;1.00;;;;;;5021346;28;20471;-80
2023/09/03 11:24:29;;;;;;;40.87;7.67;;;26.30;1.00;;;;;;5026128;28;20466;-80
2023/09/03 11:27:05;;;;;;;37.50;7.30;;;26.40;1.00;;;;;;5028765;28;20421;-83
2023/09/03 11:29:38;;;;;;;36.27;7.17;;;26.40;1.00;;;;;;5031243;28;20186;-81
2023/09/03 11:32:35;;;;;;;35.87;6.67;;;26.30;1.00;;;;;;5028104;28;20438;-81
2023/09/03 11:35:14;;;;;;;36.03;6.83;;;26.40;1.00;;;;;;5030796;28;20491;-81
2023/09/03 11:37:44;;;;;;;35.50;6.60;;;26.40;1.00;;;;;;5017848;28;20422;-80
2023/09/03 11:40:16;;;;;;;36.60;6.63;;;26.40;1.00;;;;;;5029675;28;20420;-80
2023/09/03 11:42:48;;;;;;;34.37;6.00;;;26.50;1.00;;;;;;5024134;28;20442;-81
2023/09/03 11:45:20;;;;;;;35.40;5.90;;;26.40;1.00;;;;;;5032629;28;20502;-77
2023/09/03 11:47:50;;;;;;;34.40;5.80;;;26.30;1.00;;;;;;5024783;28;20801;-77
2023/09/03 11:50:49;;;;;;;35.40;5.87;;;26.20;1.00;;;;;;5028777;28;20444;-77
2023/09/03 11:53:37;;;;;;;36.57;5.43;;;26.20;1.00;;;;;;5032353;28;20482;-77
2023/09/03 11:56:15;;;;;;;38.70;6.57;;;26.30;1.00;;;;;;5032183;28;20456;-77
2023/09/03 11:58:43;;;;;;;32.80;4.77;;;26.20;1.00;;;;;;5022564;28;20417;-78
2023/09/03 12:01:15;;;;;;;33.97;4.90;;;26.20;1.00;;;;;;5034338;28;20451;-77
2023/09/03 12:03:45;;;;;;;33.50;4.60;;;26.30;1.00;;;;;;5017745;28;20465;-77
2023/09/03 12:06:16;;;;;;;32.70;4.20;;;26.40;1.00;;;;;;5016069;28;20522;-77
2023/09/03 12:08:45;;;;;;;33.10;4.77;;;26.50;1.00;;;;;;5028136;28;20424;-77
2023/09/03 12:11:28;;;;;;;32.67;4.30;;;26.50;1.00;;;;;;5027986;28;20758;-77
2023/09/03 12:13:54;;;;;;;35.53;6.17;;;26.50;1.00;;;;;;5019530;28;20508;-81
2023/09/03 12:16:56;;;;;;;33.97;4.90;;;26.50;1.00;;;;;;5019956;28;20429;-82
2023/09/03 12:19:42;;;;;;;35.13;5.60;;;26.60;1.00;;;;;;5034443;28;20243;-82
2023/09/03 12:22:50;;;;;;;38.60;6.53;;;26.80;1.00;;;;;;5034705;28;20409;-81
2023/09/03 12:25:20;;;;;;;33.50;4.40;;;26.80;1.00;;;;;;5033688;28;20436;-81
2023/09/03 12:28:09;;;;;;;32.30;3.97;;;26.90;1.00;;;;;;5029276;28;20444;-81
2023/09/03 12:31:08;;;;;;;32.90;4.37;;;26.90;1.00;;;;;;5031756;28;20483;-81
2023/09/03 12:33:50;;;;;;;32.23;4.20;;;26.90;1.00;;;;;;5014784;28;20484;-81
2023/09/03 12:36:27;;;;;;;33.70;4.50;;;26.90;1.00;;;;;;5028921;28;20947;-81
2023/09/03 12:38:58;;;;;;;33.17;4.67;;;27.00;1.00;;;;;;5033785;28;20417;-81
2023/09/03 12:41:37;;;;;;;37.80;5.10;;;27.00;1.00;;;;;;5034249;28;20443;-81
2023/09/03 12:44:26;;;;;;;35.83;4.83;;;27.20;1.00;;;;;;5034671;28;20412;-81
2023/09/03 12:47:03;;;;;;;34.37;4.90;;;27.30;1.00;;;;;;5021594;28;20440;-81
2023/09/03 12:49:32;;;;;;;32.43;4.07;;;27.40;1.00;;;;;;5028788;28;20437;-81
2023/09/03 12:52:20;;;;;;;32.53;4.57;;;27.50;1.00;;;;;;5034169;28;20398;-80
2023/09/03 12:55:09;;;;;;;32.63;4.20;;;27.50;1.00;;;;;;5032617;28;20509;-79
2023/09/03 12:57:39;;;;;;;33.60;4.40;;;;;;;;;;5021507;28;20430;-83
2023/09/03 13:00:10;;;;;;;32.80;4.20;;;27.80;1.00;;;;;;5025307;28;20958;-81
2023/09/03 13:06:38;;;;;;;33.33;4.37;;;28.20;1.00;;;;;;5032033;28;20436;-82
2023/09/03 13:09:08;;;;;;;33.53;4.20;;;28.30;1.00;;;;;;5047462;28;20438;-81
2023/09/03 13:11:37;;;;;;;32.30;4.47;;;28.50;1.00;;;;;;5026203;28;20418;-83
2023/09/03 13:14:04;;;;;;;34.50;4.20;;;28.70;1.00;;;;;;5013555;28;20463;-84
2023/09/03 13:16:33;;;;;;;34.90;4.07;;;;;;;;;;5030494;28;20610;-85
2023/09/03 13:19:03;;;;;;;36.23;4.00;;;;;;;;;;5028523;28;20967;-81
2023/09/03 13:21:50;;;;;;;33.30;3.70;;;29.00;1.00;;;;;;5019739;28;20425;-82
2023/09/03 13:24:33;;;;;;;30.77;3.13;;;;;;;;;;5046646;28;20492;-81
2023/09/03 13:27:15;;;;;;;32.57;3.70;;;;;;;;;;5019137;28;20897;-81
2023/09/03 13:30:02;;;;;;;30.57;2.63;;;29.00;1.00;;;;;;5018757;28;20792;-81
2023/09/03 13:32:44;;;;;;;31.17;3.07;;;29.00;1.00;;;;;;5028208;28;20510;-81
2023/09/03 13:35:22;;;;;;;31.40;3.40;;;29.00;1.00;;;;;;5028469;28;21016;-81
2023/09/03 13:37:50;;;;;;;31.60;3.50;;;29.10;1.00;;;;;;5023931;28;20423;-80
2023/09/03 13:40:32;;;;;;;32.47;3.70;;;29.10;1.00;;;;;;5032858;28;20881;-80
2023/09/03 13:43:15;;;;;;;33.50;3.33;;;29.20;1.00;;;;;;5029032;28;20459;-81
2023/09/03 13:45:58;;;;;;;35.80;3.47;;;29.20;1.00;;;;;;5032357;28;20416;-82
2023/09/03 13:48:38;;;;;;;31.43;3.10;;;29.30;1.00;;;;;;5033232;28;20444;-82
2023/09/03 13:51:10;;;;;;;32.33;3.30;;;29.40;1.00;;;;;;5036083;28;20435;-81